sensor_id;sensor_type;location;lat;lon;timestamp;pressure;altitude;pressure_sealevel;temperature;humidity
19210;BME280;9738;51.654;14.238;2023-02-23T00:01:57;100309.69;;;4.83;100.00
19210;BME280;9738;51.654;14.238;2023-02-23T00:04:32;100305.03;;;4.86;100.00
19210;BME280;9738;51.654;14.238;2023-02-23T00:06:58;100308.72;;;4.73;100.00
19210;BME280;9738;51.654;14.238;2023-02-23T00:09:23;100314.31;;;4.57;100.00
19210;BME280;9738;51.654;14.238;2023-02-23T00:11:52;100305.84;;;4.65;100.00
19210;BME280;9738;51.654;14.238;2023-02-23T00:14:18;100302.09;;;4.67;100.00
19210;BME280;9738;51.654;14.238;2023-02-23T00:16:43;100291.13;;;4.60;100.00
19210;BME280;9738;51.654;14.238;2023-02-23T00:19:11;100303.66;;;4.58;100.00
19210;BME280;9738;51.654;14.238;2023-02-23T00:21:39;100296.00;;;4.43;100.00
19210;BME280;9738;51.654;14.238;2023-02-23T00:24:07;100296.91;;;4.54;100.00
19210;BME280;9738;51.654;14.238;2023-02-23T00:26:37;100295.34;;;4.52;100.00
19210;BME280;9738;51.654;14.238;2023-02-23T00:29:06;100296.19;;;4.64;100.00
19210;BME280;9738;51.654;14.238;2023-02-23T00:31:32;100296.09;;;4.65;100.00
19210;BME280;9738;51.654;14.238;2023-02-23T00:34:01;100301.13;;;4.68;100.00
19210;BME280;9738;51.654;14.238;2023-02-23T00:36:29;100294.75;;;4.71;100.00
19210;BME280;9738;51.654;14.238;2023-02-23T00:38:57;100292.47;;;4.66;100.00
19210;BME280;9738;51.654;14.238;2023-02-23T00:41:26;100293.19;;;4.68;100.00
19210;BME280;9738;51.654;14.238;2023-02-23T00:43:59;100297.41;;;4.71;100.00
19210;BME280;9738;51.654;14.238;2023-02-23T00:46:27;100290.56;;;4.68;100.00
19210;BME280;9738;51.654;14.238;2023-02-23T00:48:55;100293.19;;;4.68;100.00
19210;BME280;9738;51.654;14.238;2023-02-23T00:51:22;100302.81;;;4.69;100.00
19210;BME280;9738;51.654;14.238;2023-02-23T00:53:52;100298.75;;;4.65;100.00
19210;BME280;9738;51.654;14.238;2023-02-23T00:56:19;100294.38;;;4.64;100.00
19210;BME280;9738;51.654;14.238;2023-02-23T00:58:45;100292.81;;;4.61;100.00
19210;BME280;9738;51.654;14.238;2023-02-23T01:01:12;100294.75;;;4.59;100.00
19210;BME280;9738;51.654;14.238;2023-02-23T01:03:40;100303.53;;;4.60;100.00
19210;BME280;9738;51.654;14.238;2023-02-23T01:06:08;100293.03;;;4.47;100.00
19210;BME280;9738;51.654;14.238;2023-02-23T01:08:37;100294.72;;;4.48;100.00
19210;BME280;9738;51.654;14.238;2023-02-23T01:11:08;100293.25;;;4.44;100.00
19210;BME280;9738;51.654;14.238;2023-02-23T01:13:36;100294.06;;;4.33;100.00
19210;BME280;9738;51.654;14.238;2023-02-23T01:16:10;100287.66;;;4.25;100.00
19210;BME280;9738;51.654;14.238;2023-02-23T01:18:38;100290.41;;;4.23;100.00
19210;BME280;9738;51.654;14.238;2023-02-23T01:21:05;100288.47;;;4.14;100.00
19210;BME280;9738;51.654;14.238;2023-02-23T01:23:38;100284.13;;;4.13;100.00
19210;BME280;9738;51.654;14.238;2023-02-23T01:26:04;100284.75;;;4.17;100.00
19210;BME280;9738;51.654;14.238;2023-02-23T01:28:30;100290.59;;;4.09;100.00
19210;BME280;9738;51.654;14.238;2023-02-23T01:30:56;100286.38;;;4.06;100.00
19210;BME280;9738;51.654;14.238;2023-02-23T01:33:22;100280.50;;;4.03;100.00
19210;BME280;9738;51.654;14.238;2023-02-23T01:35:58;100273.53;;;4.02;100.00
19210;BME280;9738;51.654;14.238;2023-02-23T01:38:24;100272.28;;;3.95;100.00
19210;BME280;9738;51.654;14.238;2023-02-23T01:40:50;100273.75;;;3.99;100.00
19210;BME280;9738;51.654;14.238;2023-02-23T01:43:18;100269.75;;;3.93;100.00
19210;BME280;9738;51.654;14.238;2023-02-23T01:45:56;100272.19;;;3.96;100.00
19210;BME280;9738;51.654;14.238;2023-02-23T01:48:28;100266.81;;;4.09;100.00
19210;BME280;9738;51.654;14.238;2023-02-23T01:51:05;100274.75;;;4.09;100.00
19210;BME280;9738;51.654;14.238;2023-02-23T01:53:34;100259.94;;;4.06;100.00
19210;BME280;9738;51.654;14.238;2023-02-23T01:56:07;100255.50;;;4.07;100.00
19210;BME280;9738;51.654;14.238;2023-02-23T01:58:44;100261.16;;;4.02;100.00
19210;BME280;9738;51.654;14.238;2023-02-23T02:01:12;100265.81;;;3.99;100.00
19210;BME280;9738;51.654;14.238;2023-02-23T02:03:44;100248.78;;;4.03;100.00
19210;BME280;9738;51.654;14.238;2023-02-23T02:06:14;100251.31;;;4.04;100.00
19210;BME280;9738;51.654;14.238;2023-02-23T02:08:45;100245.91;;;4.06;100.00
19210;BME280;9738;51.654;14.238;2023-02-23T02:11:14;100244.47;;;4.02;100.00
19210;BME280;9738;51.654;14.238;2023-02-23T02:14:14;100248.78;;;4.03;100.00
19210;BME280;9738;51.654;14.238;2023-02-23T02:17:01;100242.78;;;4.01;100.00
19210;BME280;9738;51.654;14.238;2023-02-23T02:25:12;100243.09;;;3.96;100.00
19210;BME280;9738;51.654;14.238;2023-02-23T02:28:11;100238.84;;;3.83;100.00
19210;BME280;9738;51.654;14.238;2023-02-23T02:31:03;100242.22;;;3.85;100.00
19210;BME280;9738;51.654;14.238;2023-02-23T02:39:27;100237.88;;;3.84;100.00
19210;BME280;9738;51.654;14.238;2023-02-23T02:42:33;100240.75;;;3.80;100.00
19210;BME280;9738;51.654;14.238;2023-02-23T02:56:25;100231.53;;;3.86;100.00
19210;BME280;9738;51.654;14.238;2023-02-23T02:58:52;100229.63;;;3.88;100.00
19210;BME280;9738;51.654;14.238;2023-02-23T03:01:19;100230.22;;;3.92;100.00
19210;BME280;9738;51.654;14.238;2023-02-23T03:04:24;100232.03;;;3.91;100.00
19210;BME280;9738;51.654;14.238;2023-02-23T03:07:19;100224.22;;;3.90;100.00
19210;BME280;9738;51.654;14.238;2023-02-23T03:10:17;100223.59;;;3.86;100.00
19210;BME280;9738;51.654;14.238;2023-02-23T03:13:25;100222.16;;;3.82;100.00
19210;BME280;9738;51.654;14.238;2023-02-23T03:16:24;100216.19;;;3.67;100.00
19210;BME280;9738;51.654;14.238;2023-02-23T03:19:23;100215.25;;;3.44;100.00
19210;BME280;9738;51.654;14.238;2023-02-23T03:22:27;100202.88;;;3.45;100.00
19210;BME280;9738;51.654;14.238;2023-02-23T03:25:18;100202.25;;;3.41;100.00
19210;BME280;9738;51.654;14.238;2023-02-23T03:28:14;100208.88;;;3.47;100.00
19210;BME280;9738;51.654;14.238;2023-02-23T03:31:26;100201.22;;;3.44;100.00
19210;BME280;9738;51.654;14.238;2023-02-23T03:34:34;100204.88;;;3.41;100.00
19210;BME280;9738;51.654;14.238;2023-02-23T03:37:30;100207.41;;;3.43;100.00
19210;BME280;9738;51.654;14.238;2023-02-23T03:40:25;100208.63;;;3.39;100.00
19210;BME280;9738;51.654;14.238;2023-02-23T03:43:16;100211.75;;;3.44;100.00
19210;BME280;9738;51.654;14.238;2023-02-23T03:46:07;100202.19;;;3.30;100.00
19210;BME280;9738;51.654;14.238;2023-02-23T03:48:54;100203.69;;;3.21;100.00
19210;BME280;9738;51.654;14.238;2023-02-23T03:51:45;100200.88;;;3.12;100.00
19210;BME280;9738;51.654;14.238;2023-02-23T03:54:34;100202.16;;;3.06;100.00
19210;BME280;9738;51.654;14.238;2023-02-23T03:57:25;100202.16;;;3.06;100.00
19210;BME280;9738;51.654;14.238;2023-02-23T04:00:16;100196.25;;;3.03;100.00
19210;BME280;9738;51.654;14.238;2023-02-23T04:03:04;100196.22;;;3.15;100.00
19210;BME280;9738;51.654;14.238;2023-02-23T04:05:52;100182.47;;;3.23;100.00
19210;BME280;9738;51.654;14.238;2023-02-23T04:08:39;100182.38;;;3.24;100.00
19210;BME280;9738;51.654;14.238;2023-02-23T04:11:39;100181.56;;;3.35;100.00
19210;BME280;9738;51.654;14.238;2023-02-23T04:14:44;100181.00;;;3.43;100.00
19210;BME280;9738;51.654;14.238;2023-02-23T04:17:15;100175.00;;;3.41;100.00
19210;BME280;9738;51.654;14.238;2023-02-23T04:19:53;100186.28;;;3.43;100.00
19210;BME280;9738;51.654;14.238;2023-02-23T04:22:20;100187.13;;;3.43;100.00
19210;BME280;9738;51.654;14.238;2023-02-23T04:24:47;100185.97;;;3.47;100.00
19210;BME280;9738;51.654;14.238;2023-02-23T04:27:13;100192.47;;;3.31;100.00
19210;BME280;9738;51.654;14.238;2023-02-23T04:29:39;100187.53;;;3.26;100.00
19210;BME280;9738;51.654;14.238;2023-02-23T04:32:06;100175.47;;;3.35;100.00
19210;BME280;9738;51.654;14.238;2023-02-23T04:34:34;100177.66;;;3.41;100.00
19210;BME280;9738;51.654;14.238;2023-02-23T04:36:59;100177.31;;;3.45;100.00
19210;BME280;9738;51.654;14.238;2023-02-23T04:39:26;100177.06;;;3.37;100.00
19210;BME280;9738;51.654;14.238;2023-02-23T04:41:51;100166.88;;;3.44;100.00
19210;BME280;9738;51.654;14.238;2023-02-23T04:44:17;100163.69;;;3.51;100.00
19210;BME280;9738;51.654;14.238;2023-02-23T04:46:44;100166.91;;;3.55;100.00
19210;BME280;9738;51.654;14.238;2023-02-23T04:49:10;100154.28;;;3.47;100.00
19210;BME280;9738;51.654;14.238;2023-02-23T04:51:35;100153.69;;;3.44;100.00
19210;BME280;9738;51.654;14.238;2023-02-23T04:54:03;100160.66;;;3.45;100.00
19210;BME280;9738;51.654;14.238;2023-02-23T04:56:30;100163.66;;;3.28;100.00
19210;BME280;9738;51.654;14.238;2023-02-23T04:58:55;100168.50;;;3.34;100.00
19210;BME280;9738;51.654;14.238;2023-02-23T05:01:22;100160.06;;;3.29;100.00
19210;BME280;9738;51.654;14.238;2023-02-23T05:03:48;100158.16;;;3.31;100.00
19210;BME280;9738;51.654;14.238;2023-02-23T05:06:15;100152.03;;;3.30;100.00
19210;BME280;9738;51.654;14.238;2023-02-23T05:08:43;100162.38;;;3.33;100.00
19210;BME280;9738;51.654;14.238;2023-02-23T05:11:08;100163.53;;;3.29;100.00
19210;BME280;9738;51.654;14.238;2023-02-23T05:13:34;100167.03;;;3.30;100.00
19210;BME280;9738;51.654;14.238;2023-02-23T05:16:01;100175.19;;;3.27;100.00
19210;BME280;9738;51.654;14.238;2023-02-23T05:18:27;100170.06;;;3.36;100.00
19210;BME280;9738;51.654;14.238;2023-02-23T05:20:53;100164.00;;;3.47;100.00
19210;BME280;9738;51.654;14.238;2023-02-23T05:23:26;100174.84;;;3.55;100.00
19210;BME280;9738;51.654;14.238;2023-02-23T05:25:51;100174.97;;;3.53;100.00
19210;BME280;9738;51.654;14.238;2023-02-23T05:28:17;100169.91;;;3.50;100.00
19210;BME280;9738;51.654;14.238;2023-02-23T05:30:43;100170.69;;;3.40;100.00
19210;BME280;9738;51.654;14.238;2023-02-23T05:33:09;100170.91;;;3.37;100.00
19210;BME280;9738;51.654;14.238;2023-02-23T05:35:38;100174.63;;;3.34;100.00
19210;BME280;9738;51.654;14.238;2023-02-23T05:38:05;100177.13;;;3.36;100.00
19210;BME280;9738;51.654;14.238;2023-02-23T05:40:31;100174.28;;;3.39;100.00
19210;BME280;9738;51.654;14.238;2023-02-23T05:42:59;100179.44;;;3.40;100.00
19210;BME280;9738;51.654;14.238;2023-02-23T05:45:26;100174.81;;;3.44;100.00
19210;BME280;9738;51.654;14.238;2023-02-23T05:47:51;100180.56;;;3.49;100.00
19210;BME280;9738;51.654;14.238;2023-02-23T05:50:17;100179.91;;;3.58;100.00
19210;BME280;9738;51.654;14.238;2023-02-23T05:52:43;100175.97;;;3.64;100.00
19210;BME280;9738;51.654;14.238;2023-02-23T05:55:10;100180.06;;;3.68;100.00
19210;BME280;9738;51.654;14.238;2023-02-23T05:57:37;100187.66;;;3.72;100.00
19210;BME280;9738;51.654;14.238;2023-02-23T06:00:05;100183.91;;;3.75;100.00
19210;BME280;9738;51.654;14.238;2023-02-23T06:02:31;100186.47;;;3.76;100.00
19210;BME280;9738;51.654;14.238;2023-02-23T06:04:57;100186.47;;;3.76;100.00
19210;BME280;9738;51.654;14.238;2023-02-23T06:07:23;100188.16;;;3.77;100.00
19210;BME280;9738;51.654;14.238;2023-02-23T06:09:49;100185.50;;;3.77;100.00
19210;BME280;9738;51.654;14.238;2023-02-23T06:12:14;100187.19;;;3.78;100.00
19210;BME280;9738;51.654;14.238;2023-02-23T06:14:41;100180.94;;;3.79;100.00
19210;BME280;9738;51.654;14.238;2023-02-23T06:17:06;100176.50;;;3.80;100.00
19210;BME280;9738;51.654;14.238;2023-02-23T06:19:33;100177.34;;;3.80;100.00
19210;BME280;9738;51.654;14.238;2023-02-23T06:21:59;100185.19;;;3.82;100.00
19210;BME280;9738;51.654;14.238;2023-02-23T06:24:25;100184.31;;;3.82;100.00
19210;BME280;9738;51.654;14.238;2023-02-23T06:26:50;100181.66;;;3.82;100.00
19210;BME280;9738;51.654;14.238;2023-02-23T06:29:17;100180.63;;;3.84;100.00
19210;BME280;9738;51.654;14.238;2023-02-23T06:31:42;100186.63;;;3.86;100.00
19210;BME280;9738;51.654;14.238;2023-02-23T06:34:09;100185.56;;;3.89;100.00
19210;BME280;9738;51.654;14.238;2023-02-23T06:36:36;100193.97;;;3.94;100.00
19210;BME280;9738;51.654;14.238;2023-02-23T06:39:03;100201.78;;;3.95;100.00
19210;BME280;9738;51.654;14.238;2023-02-23T06:41:28;100194.91;;;3.93;100.00
19210;BME280;9738;51.654;14.238;2023-02-23T06:43:56;100193.03;;;3.95;100.00
19210;BME280;9738;51.654;14.238;2023-02-23T06:46:22;100192.06;;;3.96;100.00
19210;BME280;9738;51.654;14.238;2023-02-23T06:48:49;100193.75;;;3.97;100.00
19210;BME280;9738;51.654;14.238;2023-02-23T06:51:19;100194.59;;;3.97;100.00
19210;BME280;9738;51.654;14.238;2023-02-23T06:53:44;100191.59;;;4.02;100.00
19210;BME280;9738;51.654;14.238;2023-02-23T06:56:10;100195.44;;;3.98;100.00
19210;BME280;9738;51.654;14.238;2023-02-23T06:58:39;100203.22;;;3.99;100.00
19210;BME280;9738;51.654;14.238;2023-02-23T07:01:07;100203.22;;;3.99;100.00
19210;BME280;9738;51.654;14.238;2023-02-23T07:03:34;100203.22;;;3.99;100.00
19210;BME280;9738;51.654;14.238;2023-02-23T07:06:00;100191.47;;;4.03;100.00
19210;BME280;9738;51.654;14.238;2023-02-23T07:08:29;100199.66;;;4.12;100.00
19210;BME280;9738;51.654;14.238;2023-02-23T07:10:54;100188.50;;;4.19;100.00
19210;BME280;9738;51.654;14.238;2023-02-23T07:13:22;100194.28;;;4.24;100.00
19210;BME280;9738;51.654;14.238;2023-02-23T07:15:48;100189.34;;;4.20;100.00
19210;BME280;9738;51.654;14.238;2023-02-23T07:18:14;100195.13;;;4.14;100.00
19210;BME280;9738;51.654;14.238;2023-02-23T07:20:41;100196.56;;;4.18;100.00
19210;BME280;9738;51.654;14.238;2023-02-23T07:23:07;100197.44;;;4.29;100.00
19210;BME280;9738;51.654;14.238;2023-02-23T07:25:32;100204.19;;;4.45;100.00
19210;BME280;9738;51.654;14.238;2023-02-23T07:27:59;100201.34;;;4.59;100.00
19210;BME280;9738;51.654;14.238;2023-02-23T07:30:25;100205.19;;;4.66;100.00
19210;BME280;9738;51.654;14.238;2023-02-23T07:32:52;100205.28;;;4.76;100.00
19210;BME280;9738;51.654;14.238;2023-02-23T07:35:18;100208.06;;;4.85;100.00
19210;BME280;9738;51.654;14.238;2023-02-23T07:37:44;100210.00;;;5.06;100.00
19210;BME280;9738;51.654;14.238;2023-02-23T07:40:11;100214.03;;;5.32;100.00
19210;BME280;9738;51.654;14.238;2023-02-23T07:42:37;100218.81;;;5.61;100.00
19210;BME280;9738;51.654;14.238;2023-02-23T07:45:04;100210.53;;;5.86;100.00
19210;BME280;9738;51.654;14.238;2023-02-23T07:47:30;100202.88;;;6.04;100.00
19210;BME280;9738;51.654;14.238;2023-02-23T07:49:59;100202.16;;;6.23;100.00
19210;BME280;9738;51.654;14.238;2023-02-23T07:52:28;100201.34;;;6.43;100.00
19210;BME280;9738;51.654;14.238;2023-02-23T07:54:53;100204.22;;;6.61;100.00
19210;BME280;9738;51.654;14.238;2023-02-23T07:57:20;100200.38;;;6.75;100.00
19210;BME280;9738;51.654;14.238;2023-02-23T07:59:47;100203.06;;;6.85;100.00
19210;BME280;9738;51.654;14.238;2023-02-23T08:02:13;100200.56;;;6.83;100.00
19210;BME280;9738;51.654;14.238;2023-02-23T08:04:40;100210.38;;;6.92;100.00
19210;BME280;9738;51.654;14.238;2023-02-23T08:07:08;100197.97;;;7.02;100.00
19210;BME280;9738;51.654;14.238;2023-02-23T08:09:35;100202.31;;;7.03;100.00
19210;BME280;9738;51.654;14.238;2023-02-23T08:12:02;100194.63;;;7.00;100.00
19210;BME280;9738;51.654;14.238;2023-02-23T08:14:28;100196.16;;;7.03;100.00
19210;BME280;9738;51.654;14.238;2023-02-23T08:16:53;100197.00;;;7.03;100.00
19210;BME280;9738;51.654;14.238;2023-02-23T08:19:20;100198.13;;;7.01;100.00
19210;BME280;9738;51.654;14.238;2023-02-23T08:21:49;100189.53;;;7.28;100.00
19210;BME280;9738;51.654;14.238;2023-02-23T08:24:15;100197.41;;;7.58;100.00
19210;BME280;9738;51.654;14.238;2023-02-23T08:26:42;100196.59;;;7.77;100.00
19210;BME280;9738;51.654;14.238;2023-02-23T08:29:08;100196.59;;;7.97;100.00
19210;BME280;9738;51.654;14.238;2023-02-23T08:31:34;100195.31;;;8.10;100.00
19210;BME280;9738;51.654;14.238;2023-02-23T08:34:00;100194.63;;;8.28;100.00
19210;BME280;9738;51.654;14.238;2023-02-23T08:36:27;100195.44;;;8.38;100.00
19210;BME280;9738;51.654;14.238;2023-02-23T08:38:53;100185.66;;;8.38;100.00
19210;BME280;9738;51.654;14.238;2023-02-23T08:41:19;100198.38;;;8.54;100.00
19210;BME280;9738;51.654;14.238;2023-02-23T08:43:46;100190.50;;;8.62;100.00
19210;BME280;9738;51.654;14.238;2023-02-23T08:46:12;100195.53;;;8.65;100.00
19210;BME280;9738;51.654;14.238;2023-02-23T08:48:38;100191.44;;;8.71;100.00
19210;BME280;9738;51.654;14.238;2023-02-23T08:51:06;100193.66;;;8.76;100.00
19210;BME280;9738;51.654;14.238;2023-02-23T08:53:32;100191.09;;;8.84;100.00
19210;BME280;9738;51.654;14.238;2023-02-23T08:56:03;100189.75;;;8.80;100.00
19210;BME280;9738;51.654;14.238;2023-02-23T08:58:31;100192.47;;;8.98;100.00
19210;BME280;9738;51.654;14.238;2023-02-23T09:00:57;100195.47;;;9.12;100.00
19210;BME280;9738;51.654;14.238;2023-02-23T09:03:25;100205.78;;;9.25;100.00
19210;BME280;9738;51.654;14.238;2023-02-23T09:05:54;100193.63;;;9.40;100.00
19210;BME280;9738;51.654;14.238;2023-02-23T09:08:20;100194.59;;;9.49;100.00
19210;BME280;9738;51.654;14.238;2023-02-23T09:10:46;100201.13;;;9.55;100.00
19210;BME280;9738;51.654;14.238;2023-02-23T09:13:12;100197.16;;;9.59;100.00
19210;BME280;9738;51.654;14.238;2023-02-23T09:15:39;100195.22;;;9.61;100.00
19210;BME280;9738;51.654;14.238;2023-02-23T09:18:06;100196.09;;;9.52;100.00
19210;BME280;9738;51.654;14.238;2023-02-23T09:20:32;100189.63;;;9.54;100.00
19210;BME280;9738;51.654;14.238;2023-02-23T09:22:58;100193.38;;;9.61;100.00
19210;BME280;9738;51.654;14.238;2023-02-23T09:25:25;100191.69;;;9.78;100.00
19210;BME280;9738;51.654;14.238;2023-02-23T09:27:52;100188.81;;;9.89;100.00
19210;BME280;9738;51.654;14.238;2023-02-23T09:30:19;100194.81;;;9.91;100.00
19210;BME280;9738;51.654;14.238;2023-02-23T09:32:47;100192.47;;;9.88;100.00
19210;BME280;9738;51.654;14.238;2023-02-23T09:35:14;100197.56;;;9.82;100.00
19210;BME280;9738;51.654;14.238;2023-02-23T09:37:54;100198.09;;;9.85;100.00
19210;BME280;9738;51.654;14.238;2023-02-23T09:40:44;100196.81;;;9.89;100.00
19210;BME280;9738;51.654;14.238;2023-02-23T09:45:50;100201.97;;;9.91;100.00
19210;BME280;9738;51.654;14.238;2023-02-23T09:48:25;100201.22;;;9.98;100.00
19210;BME280;9738;51.654;14.238;2023-02-23T09:50:57;100202.13;;;10.07;100.00
19210;BME280;9738;51.654;14.238;2023-02-23T09:53:34;100195.63;;;10.10;100.00
19210;BME280;9738;51.654;14.238;2023-02-23T09:56:13;100196.34;;;10.12;100.00
19210;BME280;9738;51.654;14.238;2023-02-23T09:58:41;100195.50;;;10.29;100.00
19210;BME280;9738;51.654;14.238;2023-02-23T10:01:20;100198.66;;;10.24;100.00
19210;BME280;9738;51.654;14.238;2023-02-23T10:03:54;100198.69;;;10.15;100.00
19210;BME280;9738;51.654;14.238;2023-02-23T10:06:23;100192.69;;;10.13;100.00
19210;BME280;9738;51.654;14.238;2023-02-23T10:09:22;100202.13;;;10.07;100.00
19210;BME280;9738;51.654;14.238;2023-02-23T10:12:05;100197.63;;;10.08;100.00
19210;BME280;9738;51.654;14.238;2023-02-23T10:14:43;100201.44;;;10.05;100.00
19210;BME280;9738;51.654;14.238;2023-02-23T10:17:31;100203.56;;;10.19;100.00
19210;BME280;9738;51.654;14.238;2023-02-23T10:20:23;100198.25;;;10.37;100.00
19210;BME280;9738;51.654;14.238;2023-02-23T10:22:54;100194.38;;;10.58;100.00
19210;BME280;9738;51.654;14.238;2023-02-23T10:25:25;100183.25;;;10.70;100.00
19210;BME280;9738;51.654;14.238;2023-02-23T10:27:53;100181.47;;;10.79;100.00
19210;BME280;9738;51.654;14.238;2023-02-23T10:35:21;100192.09;;;11.05;100.00
19210;BME280;9738;51.654;14.238;2023-02-23T10:37:49;100186.59;;;11.06;100.00
19210;BME280;9738;51.654;14.238;2023-02-23T10:40:18;100186.31;;;11.18;100.00
19210;BME280;9738;51.654;14.238;2023-02-23T10:42:46;100189.19;;;11.24;100.00
19210;BME280;9738;51.654;14.238;2023-02-23T10:45:17;100190.53;;;11.20;100.00
19210;BME280;9738;51.654;14.238;2023-02-23T10:48:00;100182.34;;;11.30;100.00
19210;BME280;9738;51.654;14.238;2023-02-23T10:50:29;100182.72;;;11.43;100.00
19210;BME280;9738;51.654;14.238;2023-02-23T10:52:59;100187.22;;;11.34;100.00
19210;BME280;9738;51.654;14.238;2023-02-23T10:55:30;100173.84;;;11.34;100.00
19210;BME280;9738;51.654;14.238;2023-02-23T10:58:11;100179.56;;;11.40;100.00
19210;BME280;9738;51.654;14.238;2023-02-23T11:00:51;100173.22;;;11.49;100.00
19210;BME280;9738;51.654;14.238;2023-02-23T11:03:24;100169.06;;;11.62;100.00
19210;BME280;9738;51.654;14.238;2023-02-23T11:05:51;100161.91;;;11.71;100.00
19210;BME280;9738;51.654;14.238;2023-02-23T11:08:33;100167.56;;;11.68;100.00
19210;BME280;9738;51.654;14.238;2023-02-23T11:13:44;100157.75;;;11.85;100.00
19210;BME280;9738;51.654;14.238;2023-02-23T11:16:15;100152.88;;;11.80;100.00
19210;BME280;9738;51.654;14.238;2023-02-23T11:18:50;100159.22;;;11.79;100.00
19210;BME280;9738;51.654;14.238;2023-02-23T11:21:25;100155.50;;;11.64;100.00
19210;BME280;9738;51.654;14.238;2023-02-23T11:23:54;100150.50;;;11.61;100.00
19210;BME280;9738;51.654;14.238;2023-02-23T11:26:30;100147.66;;;11.62;100.00
19210;BME280;9738;51.654;14.238;2023-02-23T11:29:00;100144.81;;;11.64;100.00
19210;BME280;9738;51.654;14.238;2023-02-23T11:31:33;100144.31;;;11.69;100.00
19210;BME280;9738;51.654;14.238;2023-02-23T11:34:03;100144.84;;;11.80;100.00
19210;BME280;9738;51.654;14.238;2023-02-23T11:36:32;100142.88;;;11.90;100.00
19210;BME280;9738;51.654;14.238;2023-02-23T11:39:18;100141.19;;;12.06;100.00
19210;BME280;9738;51.654;14.238;2023-02-23T11:41:45;100130.97;;;12.17;100.00
19210;BME280;9738;51.654;14.238;2023-02-23T11:44:21;100133.84;;;12.16;100.00
19210;BME280;9738;51.654;14.238;2023-02-23T11:46:49;100134.47;;;12.26;100.00
19210;BME280;9738;51.654;14.238;2023-02-23T11:49:30;100125.59;;;12.34;100.00
19210;BME280;9738;51.654;14.238;2023-02-23T11:52:00;100122.38;;;12.47;100.00
19210;BME280;9738;51.654;14.238;2023-02-23T11:54:32;100113.66;;;12.53;100.00
19210;BME280;9738;51.654;14.238;2023-02-23T11:57:00;100120.72;;;12.54;100.00
19210;BME280;9738;51.654;14.238;2023-02-23T11:59:34;100115.13;;;12.63;100.00
19210;BME280;9738;51.654;14.238;2023-02-23T12:02:26;100112.41;;;12.71;100.00
19210;BME280;9738;51.654;14.238;2023-02-23T12:07:38;100109.91;;;12.70;100.00
19210;BME280;9738;51.654;14.238;2023-02-23T12:10:20;100111.13;;;12.67;100.00
19210;BME280;9738;51.654;14.238;2023-02-23T12:12:53;100110.66;;;12.56;100.00
19210;BME280;9738;51.654;14.238;2023-02-23T12:15:35;100108.44;;;12.59;100.00
19210;BME280;9738;51.654;14.238;2023-02-23T12:18:09;100105.22;;;12.72;100.00
19210;BME280;9738;51.654;14.238;2023-02-23T12:20:41;100099.53;;;12.75;100.00
19210;BME280;9738;51.654;14.238;2023-02-23T12:23:12;100107.06;;;12.71;100.00
19210;BME280;9738;51.654;14.238;2023-02-23T12:25:50;100101.91;;;12.62;100.00
19210;BME280;9738;51.654;14.238;2023-02-23T12:28:26;100100.25;;;12.61;100.00
19210;BME280;9738;51.654;14.238;2023-02-23T12:31:05;100097.59;;;12.53;100.00
19210;BME280;9738;51.654;14.238;2023-02-23T12:33:47;100095.44;;;12.48;100.00
19210;BME280;9738;51.654;14.238;2023-02-23T12:36:25;100098.28;;;12.47;100.00
19210;BME280;9738;51.654;14.238;2023-02-23T12:39:02;100098.94;;;12.49;100.00
19210;BME280;9738;51.654;14.238;2023-02-23T12:41:39;100095.59;;;12.55;100.00
19210;BME280;9738;51.654;14.238;2023-02-23T12:44:43;100094.06;;;12.60;100.00
19210;BME280;9738;51.654;14.238;2023-02-23T12:47:27;100089.88;;;12.58;100.00
19210;BME280;9738;51.654;14.238;2023-02-23T12:50:02;100092.72;;;12.56;100.00
19210;BME280;9738;51.654;14.238;2023-02-23T12:52:48;100092.22;;;12.53;100.00
19210;BME280;9738;51.654;14.238;2023-02-23T12:55:22;100093.25;;;12.52;100.00
19210;BME280;9738;51.654;14.238;2023-02-23T12:58:04;100090.56;;;12.52;100.00
19210;BME280;9738;51.654;14.238;2023-02-23T13:00:47;100091.59;;;12.42;100.00
19210;BME280;9738;51.654;14.238;2023-02-23T13:03:48;100091.78;;;12.41;100.00
19210;BME280;9738;51.654;14.238;2023-02-23T13:09:35;100092.28;;;12.36;100.00
19210;BME280;9738;51.654;14.238;2023-02-23T13:12:24;100085.56;;;12.40;100.00
19210;BME280;9738;51.654;14.238;2023-02-23T13:15:14;100086.75;;;12.38;100.00
19210;BME280;9738;51.654;14.238;2023-02-23T13:18:05;100084.22;;;12.44;100.00
19210;BME280;9738;51.654;14.238;2023-02-23T13:20:39;100086.75;;;12.38;100.00
19210;BME280;9738;51.654;14.238;2023-02-23T13:26:03;100077.59;;;12.24;100.00
19210;BME280;9738;51.654;14.238;2023-02-23T13:31:20;100082.59;;;12.19;100.00
19210;BME280;9738;51.654;14.238;2023-02-23T13:33:47;100078.44;;;12.16;100.00
19210;BME280;9738;51.654;14.238;2023-02-23T13:36:14;100076.28;;;12.12;100.00
19210;BME280;9738;51.654;14.238;2023-02-23T13:39:01;100079.09;;;12.18;100.00
19210;BME280;9738;51.654;14.238;2023-02-23T13:41:39;100075.09;;;12.23;100.00
19210;BME280;9738;51.654;14.238;2023-02-23T13:44:19;100073.41;;;12.22;100.00
19210;BME280;9738;51.654;14.238;2023-02-23T13:46:52;100072.56;;;12.29;100.00
19210;BME280;9738;51.654;14.238;2023-02-23T13:49:33;100077.91;;;12.29;100.00
19210;BME280;9738;51.654;14.238;2023-02-23T13:52:30;100071.53;;;12.30;100.00
19210;BME280;9738;51.654;14.238;2023-02-23T13:54:58;100075.38;;;12.36;100.00
19210;BME280;9738;51.654;14.238;2023-02-23T13:57:30;100072.16;;;12.40;100.00
19210;BME280;9738;51.654;14.238;2023-02-23T13:59:56;100076.53;;;12.33;100.00
19210;BME280;9738;51.654;14.238;2023-02-23T14:04:56;100071.34;;;12.40;100.00